createdAt,value
2019-02-25T00:01:14.339Z,102386.97
2019-02-25T00:03:41.081Z,102390.84
2019-02-25T00:06:07.867Z,102395.39
2019-02-25T00:08:34.609Z,102397.29
2019-02-25T00:11:01.330Z,102398.46
2019-02-25T00:13:28.066Z,102404.11
2019-02-25T00:15:54.787Z,102409.11
2019-02-25T00:18:21.557Z,102406.04
2019-02-25T00:20:48.291Z,102405.27
2019-02-25T00:23:15.019Z,102410.30
2019-02-25T00:25:41.734Z,102406.70
2019-02-25T00:28:08.465Z,102399.23
2019-02-25T00:30:35.191Z,102396.47
2019-02-25T00:33:01.940Z,102392.56
2019-02-25T00:35:28.650Z,102393.30
2019-02-25T00:37:55.398Z,102392.91
2019-02-25T00:40:22.242Z,102387.02
2019-02-25T00:42:48.960Z,102384.24
2019-02-25T00:45:19.645Z,102383.80
2019-02-25T00:47:46.293Z,102388.16
2019-02-25T00:50:13.066Z,102391.56
2019-02-25T00:52:39.836Z,102385.52
2019-02-25T00:55:06.751Z,102378.01
2019-02-25T00:57:33.494Z,102376.72
2019-02-25T01:00:00.355Z,102368.72
2019-02-25T01:02:27.122Z,102364.42
2019-02-25T01:04:54.738Z,102358.83
2019-02-25T01:07:21.470Z,102350.50
2019-02-25T01:09:48.218Z,102342.15
2019-02-25T01:12:14.933Z,102344.22
2019-02-25T01:14:41.661Z,102344.95
2019-02-25T01:17:08.394Z,102340.20
2019-02-25T01:19:35.117Z,102346.69
2019-02-25T01:22:01.840Z,102347.64
2019-02-25T01:24:28.607Z,102342.67
2019-02-25T01:26:55.329Z,102342.78
2019-02-25T01:29:22.098Z,102336.67
2019-02-25T01:31:48.818Z,102341.44
2019-02-25T01:34:15.548Z,102333.27
2019-02-25T01:36:42.474Z,102332.38
2019-02-25T01:39:09.198Z,102336.06
2019-02-25T01:41:35.921Z,102343.62
2019-02-25T01:44:02.682Z,102338.08
2019-02-25T01:46:29.440Z,102340.04
2019-02-25T01:48:56.199Z,102342.33
2019-02-25T01:51:22.909Z,102343.67
2019-02-25T01:53:49.630Z,102349.81
2019-02-25T01:56:16.346Z,102343.83
2019-02-25T01:58:43.085Z,102339.97
2019-02-25T02:01:09.810Z,102328.46
2019-02-25T02:03:36.542Z,102331.30
2019-02-25T02:06:03.277Z,102330.75
2019-02-25T02:08:30.106Z,102328.62
2019-02-25T02:10:56.809Z,102329.75
2019-02-25T02:13:23.543Z,102332.75
2019-02-25T02:15:50.270Z,102324.20
2019-02-25T02:18:17.003Z,102323.36
2019-02-25T02:20:43.710Z,102326.20
2019-02-25T02:23:10.486Z,102318.08
2019-02-25T02:25:37.202Z,102326.09
2019-02-25T02:28:04.010Z,102328.73
2019-02-25T02:30:30.739Z,102323.63
2019-02-25T02:32:57.450Z,102314.30
2019-02-25T02:35:24.191Z,102320.17
2019-02-25T02:37:50.910Z,102327.20
2019-02-25T02:40:17.750Z,102333.22
2019-02-25T02:42:47.154Z,102343.16
2019-02-25T02:45:17.712Z,102336.98
2019-02-25T02:47:56.438Z,102352.55
2019-02-25T02:50:24.807Z,102344.69
2019-02-25T02:52:51.515Z,102355.14
2019-02-25T02:55:18.290Z,102353.70
2019-02-25T02:57:45.009Z,102355.62
2019-02-25T03:00:13.843Z,102356.39
2019-02-25T03:02:40.553Z,102356.05
2019-02-25T03:05:09.281Z,102354.78
2019-02-25T03:07:35.998Z,102356.31
2019-02-25T03:10:03.249Z,102361.13
2019-02-25T03:12:29.954Z,102361.61
2019-02-25T03:14:56.694Z,102352.02
2019-02-25T03:17:23.429Z,102356.91
2019-02-25T03:19:50.161Z,102359.23
2019-02-25T03:22:16.962Z,102356.61
2019-02-25T03:24:43.742Z,102365.11
2019-02-25T03:27:10.461Z,102366.53
2019-02-25T03:29:37.194Z,102362.91
2019-02-25T03:32:03.899Z,102371.44
2019-02-25T03:34:30.627Z,102370.64
2019-02-25T03:36:57.357Z,102370.95
2019-02-25T03:39:24.158Z,102369.83
2019-02-25T03:41:50.888Z,102377.20
2019-02-25T03:44:17.632Z,102373.41
2019-02-25T03:46:44.365Z,102375.23
2019-02-25T03:49:11.079Z,102378.47
2019-02-25T03:51:37.805Z,102377.80
2019-02-25T03:54:04.527Z,102385.63
2019-02-25T03:56:31.251Z,102385.42
2019-02-25T03:58:57.977Z,102385.92
2019-02-25T04:01:24.705Z,102381.19
2019-02-25T04:03:51.426Z,102383.16
2019-02-25T04:06:18.212Z,102376.78
2019-02-25T04:08:44.885Z,102384.26
2019-02-25T04:11:11.603Z,102377.23
2019-02-25T04:13:38.313Z,102382.81
2019-02-25T04:16:05.058Z,102377.48
2019-02-25T04:18:31.771Z,102389.48
2019-02-25T04:20:58.494Z,102392.11
2019-02-25T04:23:25.234Z,102386.32
2019-02-25T04:25:51.954Z,102373.90
2019-02-25T04:28:18.688Z,102380.57
2019-02-25T04:30:45.418Z,102375.89
2019-02-25T04:33:12.143Z,102379.55
2019-02-25T04:35:38.890Z,102390.09
2019-02-25T04:38:05.627Z,102396.01
2019-02-25T04:40:32.354Z,102401.62
2019-02-25T04:42:59.083Z,102402.30
2019-02-25T04:45:25.827Z,102396.46
2019-02-25T04:47:52.555Z,102388.78
2019-02-25T04:50:19.312Z,102398.40
2019-02-25T04:52:46.048Z,102394.35
2019-02-25T04:55:12.799Z,102399.00
2019-02-25T04:57:39.526Z,102394.14
2019-02-25T05:00:09.651Z,102392.20
2019-02-25T05:02:36.394Z,102393.80
2019-02-25T05:05:03.230Z,102381.98
2019-02-25T05:07:29.939Z,102381.09
2019-02-25T05:09:56.690Z,102386.05
2019-02-25T05:12:23.413Z,102380.83
2019-02-25T05:14:50.192Z,102390.48
2019-02-25T05:17:16.965Z,102391.98
2019-02-25T05:19:43.696Z,102380.52
2019-02-25T05:22:10.442Z,102383.39
2019-02-25T05:24:37.165Z,102383.39
2019-02-25T05:27:03.926Z,102388.52
2019-02-25T05:29:30.643Z,102387.45
2019-02-25T05:31:57.409Z,102385.41
2019-02-25T05:34:24.126Z,102386.56
2019-02-25T05:36:50.876Z,102388.42
2019-02-25T05:39:17.606Z,102389.89
2019-02-25T05:41:44.347Z,102390.73
2019-02-25T05:44:11.078Z,102389.02
2019-02-25T05:46:37.842Z,102376.61
2019-02-25T05:49:04.563Z,102378.26
2019-02-25T05:51:31.309Z,102376.22
2019-02-25T05:53:58.049Z,102375.03
2019-02-25T05:56:24.806Z,102373.03
2019-02-25T05:58:51.533Z,102375.82
2019-02-25T06:01:18.307Z,102356.83
2019-02-25T06:03:45.025Z,102353.69
2019-02-25T06:06:11.773Z,102360.51
2019-02-25T06:08:38.494Z,102355.59
2019-02-25T06:11:05.320Z,102351.13
2019-02-25T06:13:32.046Z,102359.84
2019-02-25T06:15:58.758Z,102370.06
2019-02-25T06:18:25.467Z,102374.58
2019-02-25T06:20:52.219Z,102367.00
2019-02-25T06:23:18.953Z,102384.38
2019-02-25T06:25:45.685Z,102388.25
2019-02-25T06:28:12.400Z,102391.12
2019-02-25T06:30:39.163Z,102388.22
2019-02-25T06:33:05.877Z,102391.28
2019-02-25T06:35:32.611Z,102396.14
2019-02-25T06:37:59.362Z,102392.61
2019-02-25T06:40:26.101Z,102385.48
2019-02-25T06:42:52.840Z,102389.81
2019-02-25T06:45:20.405Z,102394.95
2019-02-25T06:47:47.270Z,102401.41
2019-02-25T06:50:14.007Z,102401.94
2019-02-25T06:52:40.926Z,102392.42
2019-02-25T06:55:09.482Z,102407.88
2019-02-25T06:57:36.201Z,102414.33
2019-02-25T07:00:04.621Z,102420.41
2019-02-25T07:02:31.371Z,102413.94
2019-02-25T07:05:05.021Z,102417.45
2019-02-25T07:07:49.065Z,102401.45
2019-02-25T07:10:21.509Z,102415.41
2019-02-25T07:12:54.077Z,102413.37
2019-02-25T07:15:29.968Z,102410.27
2019-02-25T07:18:19.278Z,102412.67
2019-02-25T07:20:52.994Z,102399.87
2019-02-25T07:23:25.522Z,102402.98
2019-02-25T07:26:00.698Z,102405.80
2019-02-25T07:28:33.277Z,102405.89
2019-02-25T07:31:11.885Z,102401.59
2019-02-25T07:33:59.209Z,102400.10
2019-02-25T07:36:45.564Z,102396.38
2019-02-25T07:39:27.497Z,102391.34
2019-02-25T07:41:59.998Z,102388.45
2019-02-25T07:44:41.117Z,102389.06
2019-02-25T07:47:12.997Z,102390.05
2019-02-25T07:49:52.722Z,102386.78
2019-02-25T07:52:28.982Z,102381.85
2019-02-25T07:55:03.314Z,102384.03
2019-02-25T07:57:37.545Z,102376.97
2019-02-25T08:00:24.374Z,102360.05
2019-02-25T08:03:03.733Z,102361.28
2019-02-25T08:05:50.986Z,102358.64
2019-02-25T08:08:30.253Z,102362.65
2019-02-25T08:11:09.646Z,102362.06
2019-02-25T08:13:44.730Z,102356.23
2019-02-25T08:16:31.972Z,102356.59
2019-02-25T08:19:19.219Z,102346.69
2019-02-25T08:22:05.573Z,102350.45
2019-02-25T08:24:41.395Z,102341.44
2019-02-25T08:27:19.627Z,102340.62
2019-02-25T08:30:01.420Z,102336.62
2019-02-25T08:32:38.213Z,102340.82
2019-02-25T08:35:16.269Z,102340.48
2019-02-25T08:37:59.623Z,102331.05
2019-02-25T08:40:43.259Z,102332.13
2019-02-25T08:43:21.045Z,102319.87
2019-02-25T08:45:54.642Z,102322.36
2019-02-25T08:48:27.641Z,102320.85
2019-02-25T08:50:56.211Z,102322.00
2019-02-25T08:53:21.137Z,102323.72
2019-02-25T08:55:47.922Z,102329.82
2019-02-25T08:58:14.658Z,102336.37
2019-02-25T09:00:41.370Z,102321.22
2019-02-25T09:03:08.221Z,102317.03
2019-02-25T09:05:34.946Z,102310.03
2019-02-25T09:08:01.673Z,102313.81
2019-02-25T09:10:28.398Z,102317.55
2019-02-25T09:12:55.178Z,102321.66
2019-02-25T09:15:21.901Z,102317.56
2019-02-25T09:17:47.869Z,102325.64
2019-02-25T09:20:14.651Z,102331.27
2019-02-25T09:22:41.381Z,102328.35
2019-02-25T09:25:08.418Z,102326.09
2019-02-25T09:27:35.157Z,102329.27
2019-02-25T09:30:01.910Z,102329.50
2019-02-25T09:32:28.662Z,102331.61
2019-02-25T09:34:55.390Z,102336.16
2019-02-25T09:37:22.194Z,102332.05
2019-02-25T09:39:48.915Z,102326.60
2019-02-25T09:42:15.656Z,102322.71
2019-02-25T09:44:42.378Z,102321.23
2019-02-25T09:47:09.094Z,102306.32
2019-02-25T09:49:35.981Z,102309.13
2019-02-25T09:52:02.702Z,102299.41
2019-02-25T09:54:29.434Z,102298.52
2019-02-25T09:56:56.146Z,102304.87
2019-02-25T09:59:22.886Z,102300.92
2019-02-25T10:01:49.606Z,102301.07
2019-02-25T10:04:16.350Z,102297.80
2019-02-25T10:06:43.150Z,102312.89
2019-02-25T10:09:09.906Z,102306.39
2019-02-25T10:11:36.625Z,102303.90
2019-02-25T10:14:03.390Z,102298.70
2019-02-25T10:16:30.106Z,102303.45
2019-02-25T10:18:56.865Z,102304.91
2019-02-25T10:21:23.582Z,102308.45
2019-02-25T10:23:50.329Z,102302.25
2019-02-25T10:26:17.575Z,102311.05
2019-02-25T10:28:44.309Z,102298.97
2019-02-25T10:31:12.721Z,102299.80
2019-02-25T10:33:37.819Z,102293.65
2019-02-25T10:36:04.542Z,102286.11
2019-02-25T10:38:31.277Z,102281.20
2019-02-25T10:40:59.381Z,102274.68
2019-02-25T10:43:26.112Z,102272.44
2019-02-25T10:45:51.442Z,102271.64
2019-02-25T10:48:19.951Z,102272.28
2019-02-25T10:50:44.894Z,102270.34
2019-02-25T10:53:13.577Z,102270.77
2019-02-25T10:55:45.013Z,102264.15
2019-02-25T10:58:09.605Z,102265.58
2019-02-25T11:00:37.817Z,102255.97
2019-02-25T11:03:03.194Z,102258.43
2019-02-25T11:05:30.470Z,102260.23
2019-02-25T11:07:56.806Z,102256.34
2019-02-25T11:10:31.958Z,102256.84
2019-02-25T11:12:59.932Z,102255.20
2019-02-25T11:15:25.437Z,102237.03
2019-02-25T11:17:53.792Z,102248.03
2019-02-25T11:20:18.976Z,102250.52
2019-02-25T11:22:46.164Z,102251.59
2019-02-25T11:25:12.574Z,102246.87
2019-02-25T11:27:40.009Z,102243.61
2019-02-25T11:30:07.158Z,102231.98
2019-02-25T11:32:33.972Z,102228.12
2019-02-25T11:35:01.378Z,102224.12
2019-02-25T11:37:27.431Z,102228.67
2019-02-25T11:39:54.940Z,102233.63
2019-02-25T11:42:21.094Z,102225.72
2019-02-25T11:44:47.807Z,102231.92
2019-02-25T11:47:14.550Z,102235.98
2019-02-25T11:49:41.290Z,102235.60
2019-02-25T11:52:08.061Z,102231.73
2019-02-25T11:54:34.798Z,102240.39
2019-02-25T11:57:01.598Z,102244.52
2019-02-25T11:59:28.346Z,102225.98
2019-02-25T12:01:55.281Z,102235.97
2019-02-25T12:04:22.013Z,102221.06
2019-02-25T12:06:48.762Z,102223.05
2019-02-25T12:09:15.507Z,102216.48
2019-02-25T12:11:42.227Z,102214.60
2019-02-25T12:14:08.997Z,102216.18
2019-02-25T12:16:35.725Z,102204.19
2019-02-25T12:19:02.473Z,102208.69
2019-02-25T12:21:29.206Z,102208.93
2019-02-25T12:23:55.945Z,102214.27
2019-02-25T12:26:22.662Z,102200.38
2019-02-25T12:28:49.414Z,102197.03
2019-02-25T12:31:16.137Z,102192.77
2019-02-25T12:33:42.849Z,102193.42
2019-02-25T12:36:09.583Z,102177.27
2019-02-25T12:38:36.310Z,102177.17
2019-02-25T12:41:03.038Z,102182.56
2019-02-25T12:43:29.858Z,102182.22
2019-02-25T12:45:56.639Z,102176.93
2019-02-25T12:48:23.442Z,102171.21
2019-02-25T12:50:50.206Z,102156.61
2019-02-25T12:53:16.922Z,102159.71
2019-02-25T12:55:43.658Z,102154.63
2019-02-25T12:58:10.408Z,102163.57
2019-02-25T13:00:37.143Z,102151.34
2019-02-25T13:03:03.863Z,102147.34
2019-02-25T13:05:30.622Z,102150.05
2019-02-25T13:07:57.346Z,102139.55
2019-02-25T13:10:24.098Z,102131.74
2019-02-25T13:12:51.745Z,102139.55
2019-02-25T13:15:17.560Z,102126.17
2019-02-25T13:17:44.280Z,102129.25
2019-02-25T13:20:11.053Z,102133.38
2019-02-25T13:22:37.778Z,102126.70
2019-02-25T13:25:07.885Z,102135.25
2019-02-25T13:27:32.442Z,102127.83
2019-02-25T13:29:59.299Z,102129.73
2019-02-25T13:32:26.101Z,102123.72
2019-02-25T13:34:52.837Z,102132.53
2019-02-25T13:37:19.586Z,102116.22
2019-02-25T13:39:46.341Z,102124.45
2019-02-25T13:42:13.174Z,102116.52
2019-02-25T13:44:40.025Z,102112.76
2019-02-25T13:47:06.737Z,102115.42
2019-02-25T13:49:33.494Z,102104.87
2019-02-25T13:52:00.215Z,102102.13
2019-02-25T13:54:29.214Z,102097.22
2019-02-25T13:56:53.725Z,102097.58
2019-02-25T13:59:20.458Z,102094.61
2019-02-25T14:01:47.314Z,102089.36
2019-02-25T14:04:14.034Z,102087.70
2019-02-25T14:06:40.822Z,102088.71
2019-02-25T14:09:08.127Z,102094.70
2019-02-25T14:11:34.876Z,102088.77
2019-02-25T14:14:01.594Z,102082.73
2019-02-25T14:16:28.332Z,102090.96
2019-02-25T14:18:55.086Z,102078.50
2019-02-25T14:21:21.841Z,102078.59
2019-02-25T14:23:48.663Z,102079.77
2019-02-25T14:26:15.406Z,102080.56
2019-02-25T14:28:42.146Z,102086.05
2019-02-25T14:31:08.894Z,102080.56
2019-02-25T14:33:35.998Z,102084.59
2019-02-25T14:36:02.439Z,102073.73
2019-02-25T14:38:29.926Z,102077.53
2019-02-25T14:40:56.802Z,102076.06
2019-02-25T14:43:24.965Z,102078.94
2019-02-25T14:45:53.716Z,102070.61
2019-02-25T14:48:20.329Z,102063.30
2019-02-25T14:50:42.879Z,102057.31
2019-02-25T14:53:11.394Z,102045.16
2019-02-25T14:55:36.338Z,102047.20
2019-02-25T14:58:05.318Z,102043.82
2019-02-25T15:00:32.802Z,102043.98
2019-02-25T15:02:56.623Z,102043.23
2019-02-25T15:05:23.360Z,102040.51
2019-02-25T15:07:51.161Z,102040.58
2019-02-25T15:10:16.837Z,102041.36
2019-02-25T15:12:43.585Z,102032.57
2019-02-25T15:15:10.986Z,102034.52
2019-02-25T15:17:37.729Z,102030.61
2019-02-25T15:20:04.626Z,102026.62
2019-02-25T15:22:32.035Z,102022.25
2019-02-25T15:24:59.497Z,102020.98
2019-02-25T15:27:24.942Z,102024.86
2019-02-25T15:29:51.674Z,102024.84
2019-02-25T15:32:18.414Z,102031.41
2019-02-25T15:34:46.551Z,102037.83
2019-02-25T15:37:13.777Z,102035.62
2019-02-25T15:39:41.872Z,102034.10
2019-02-25T15:42:05.345Z,102027.63
2019-02-25T15:44:32.086Z,102036.67
2019-02-25T15:47:00.244Z,102032.45
2019-02-25T15:49:26.071Z,102029.59
2019-02-25T15:51:52.429Z,102026.48
2019-02-25T15:54:19.142Z,102033.52
2019-02-25T15:56:45.869Z,102038.80
2019-02-25T15:59:12.633Z,102041.97
2019-02-25T16:01:39.374Z,102042.56
2019-02-25T16:04:07.129Z,102040.08
2019-02-25T16:06:33.538Z,102041.80
2019-02-25T16:09:00.868Z,102046.27
2019-02-25T16:11:26.297Z,102056.72
2019-02-25T16:13:53.551Z,102054.14
2019-02-25T16:16:20.082Z,102053.38
2019-02-25T16:21:26.618Z,102057.89
2019-02-25T16:23:51.955Z,102067.80
2019-02-25T16:26:20.119Z,102070.33
2019-02-25T16:28:45.539Z,102084.67
2019-02-25T16:31:14.827Z,102099.38
2019-02-25T16:33:40.011Z,102087.25
2019-02-25T16:36:07.865Z,102088.70
2019-02-25T16:38:34.656Z,102084.98
2019-02-25T16:41:00.919Z,102090.74
2019-02-25T16:43:27.094Z,102084.67
2019-02-25T16:45:53.874Z,102090.23
2019-02-25T16:48:24.247Z,102090.41
2019-02-25T16:50:47.542Z,102095.24
2019-02-25T16:53:15.426Z,102083.09
2019-02-25T16:55:42.792Z,102084.58
2019-02-25T16:58:12.453Z,102092.32
2019-02-25T17:00:35.488Z,102097.33
2019-02-25T17:03:03.725Z,102098.66
2019-02-25T17:05:28.299Z,102101.80
2019-02-25T17:07:56.142Z,102095.61
2019-02-25T17:10:24.073Z,102099.88
2019-02-25T17:12:50.026Z,102101.83
2019-02-25T17:15:15.538Z,102097.91
2019-02-25T17:17:42.278Z,102100.99
2019-02-25T17:20:13.010Z,102107.21
2019-02-25T17:22:37.530Z,102114.19
2019-02-25T17:25:08.154Z,102118.28
2019-02-25T17:27:31.090Z,102122.05
2019-02-25T17:29:59.726Z,102116.97
2019-02-25T17:32:25.458Z,102117.33
2019-02-25T17:34:51.354Z,102119.73
2019-02-25T17:37:18.082Z,102112.97
2019-02-25T17:39:44.901Z,102112.27
2019-02-25T17:42:11.803Z,102120.30
2019-02-25T17:44:38.806Z,102117.77
2019-02-25T17:47:06.712Z,102113.96
2019-02-25T17:49:32.322Z,102111.36
2019-02-25T17:51:59.875Z,102108.12
2019-02-25T17:54:25.289Z,102110.70
2019-02-25T17:56:51.994Z,102118.84
2019-02-25T17:59:18.776Z,102121.87
2019-02-25T18:01:46.291Z,102103.48
2019-02-25T18:04:12.194Z,102113.91
2019-02-25T18:06:40.983Z,102123.16
2019-02-25T18:09:07.188Z,102120.41
2019-02-25T18:11:33.898Z,102123.97
2019-02-25T18:14:00.635Z,102133.63
2019-02-25T18:16:27.371Z,102127.20
2019-02-25T18:18:54.449Z,102118.16
2019-02-25T18:21:20.825Z,102123.58
2019-02-25T18:23:49.413Z,102132.36
2019-02-25T18:26:14.877Z,102122.06
2019-02-25T18:28:42.068Z,102131.17
2019-02-25T18:31:10.821Z,102135.06
2019-02-25T18:33:34.821Z,102136.60
2019-02-25T18:36:02.423Z,102136.41
2019-02-25T18:38:29.574Z,102145.27
2019-02-25T18:40:55.017Z,102145.14
2019-02-25T18:43:22.581Z,102149.15
2019-02-25T18:45:48.502Z,102152.92
2019-02-25T18:48:16.831Z,102145.08
2019-02-25T18:50:44.841Z,102146.36
2019-02-25T18:53:08.753Z,102149.73
2019-02-25T18:55:35.478Z,102147.73
2019-02-25T18:58:02.218Z,102146.52
2019-02-25T19:00:32.206Z,102151.63
2019-02-25T19:03:00.344Z,102144.12
2019-02-25T19:05:27.158Z,102140.69
2019-02-25T19:07:53.292Z,102135.20
2019-02-25T19:10:20.480Z,102139.02
2019-02-25T19:12:47.973Z,102144.97
2019-02-25T19:15:12.874Z,102157.56
2019-02-25T19:17:39.601Z,102158.77
2019-02-25T19:20:06.466Z,102164.61
2019-02-25T19:22:33.959Z,102163.61
2019-02-25T19:25:00.056Z,102164.63
2019-02-25T19:27:27.783Z,102171.94
2019-02-25T19:29:57.437Z,102167.62
2019-02-25T19:32:20.942Z,102173.84
2019-02-25T19:34:47.339Z,102167.73
2019-02-25T19:37:14.526Z,102169.85
2019-02-25T19:39:41.474Z,102173.09
2019-02-25T19:42:07.740Z,102172.08
2019-02-25T19:44:36.309Z,102175.98
2019-02-25T19:47:01.350Z,102172.73
2019-02-25T19:49:28.086Z,102162.79
2019-02-25T19:51:54.918Z,102165.49
2019-02-25T19:54:21.653Z,102160.86
2019-02-25T19:56:50.672Z,102168.06
2019-02-25T19:59:15.218Z,102164.66
2019-02-25T20:01:41.946Z,102154.89
2019-02-25T20:04:09.153Z,102153.90
2019-02-25T20:06:35.434Z,102152.50
2019-02-25T20:09:02.202Z,102158.70
2019-02-25T20:11:29.012Z,102161.45
2019-02-25T20:13:55.772Z,102155.48
2019-02-25T20:16:22.959Z,102154.94
2019-02-25T20:18:49.201Z,102154.75
2019-02-25T20:21:15.925Z,102156.45
2019-02-25T20:23:42.661Z,102163.02
2019-02-25T20:26:11.293Z,102174.16
2019-02-25T20:28:36.126Z,102171.58
2019-02-25T20:31:02.844Z,102173.84
2019-02-25T20:33:31.932Z,102168.81
2019-02-25T20:35:58.368Z,102173.94
2019-02-25T20:38:26.852Z,102177.61
2019-02-25T20:40:51.223Z,102172.72
2019-02-25T20:43:19.298Z,102174.94
2019-02-25T20:45:43.226Z,102171.09
2019-02-25T20:48:09.958Z,102175.48
2019-02-25T20:50:36.708Z,102176.23
2019-02-25T20:53:05.941Z,102170.84
2019-02-25T20:55:31.723Z,102175.73
2019-02-25T20:57:56.882Z,102171.42
2019-02-25T21:00:23.626Z,102171.46
2019-02-25T21:02:50.348Z,102187.02
2019-02-25T21:05:19.493Z,102183.97
2019-02-25T21:07:43.838Z,102182.19
2019-02-25T21:10:11.359Z,102186.52
2019-02-25T21:12:38.122Z,102181.88
2019-02-25T21:15:05.126Z,102183.76
2019-02-25T21:17:33.225Z,102192.98
2019-02-25T21:20:00.245Z,102196.33
2019-02-25T21:22:27.263Z,102197.33
2019-02-25T21:24:55.740Z,102186.03
2019-02-25T21:27:18.879Z,102191.97
2019-02-25T21:29:45.589Z,102188.59
2019-02-25T21:32:15.047Z,102185.80
2019-02-25T21:34:39.046Z,102177.84
2019-02-25T21:37:05.769Z,102181.59
2019-02-25T21:39:34.319Z,102176.41
2019-02-25T21:41:59.264Z,102171.53
2019-02-25T21:44:28.473Z,102168.16
2019-02-25T21:46:54.013Z,102165.34
2019-02-25T21:49:20.239Z,102162.11
2019-02-25T21:51:48.005Z,102161.52
2019-02-25T21:54:12.994Z,102151.88
2019-02-25T21:56:39.718Z,102149.78
2019-02-25T21:59:08.282Z,102152.06
2019-02-25T22:01:34.612Z,102153.89
2019-02-25T22:04:00.497Z,102162.02
2019-02-25T22:06:29.036Z,102163.77
2019-02-25T22:08:54.574Z,102158.13
2019-02-25T22:11:22.182Z,102161.79
2019-02-25T22:13:47.450Z,102159.88
2019-02-25T22:16:14.193Z,102161.72
2019-02-25T22:18:40.926Z,102165.05
2019-02-25T22:21:09.423Z,102162.53
2019-02-25T22:23:35.436Z,102163.58
2019-02-25T22:26:01.163Z,102151.84
2019-02-25T22:28:28.819Z,102157.81
2019-02-25T22:30:54.622Z,102157.22
2019-02-25T22:33:27.443Z,102162.47
2019-02-25T22:35:49.914Z,102159.83
2019-02-25T22:38:14.869Z,102160.50
2019-02-25T22:40:41.606Z,102159.89
2019-02-25T22:43:10.069Z,102156.38
2019-02-25T22:45:36.004Z,102160.50
2019-02-25T22:48:01.785Z,102152.88
2019-02-25T22:50:29.137Z,102151.91
2019-02-25T22:52:58.433Z,102157.61
2019-02-25T22:55:22.709Z,102152.44
2019-02-25T22:57:53.525Z,102145.02
2019-02-25T23:00:25.754Z,102156.84
2019-02-25T23:02:54.513Z,102150.04
2019-02-25T23:05:21.125Z,102158.10
2019-02-25T23:07:47.994Z,102160.10
2019-02-25T23:10:13.364Z,102159.58
2019-02-25T23:12:39.486Z,102158.27
2019-02-25T23:15:06.274Z,102165.45
2019-02-25T23:17:35.107Z,102171.00
2019-02-25T23:20:00.140Z,102175.78
2019-02-25T23:22:28.088Z,102184.97
2019-02-25T23:24:53.182Z,102180.28
2019-02-25T23:27:19.929Z,102171.17
2019-02-25T23:29:48.283Z,102164.95
2019-02-25T23:32:15.362Z,102165.36
2019-02-25T23:34:42.612Z,102168.48
2019-02-25T23:37:08.407Z,102166.58
2019-02-25T23:39:36.018Z,102157.34
2019-02-25T23:42:00.668Z,102163.83
2019-02-25T23:44:27.137Z,102161.73
2019-02-25T23:46:57.639Z,102162.83
2019-02-25T23:49:27.055Z,102157.05
2019-02-25T23:51:48.121Z,102158.21
2019-02-25T23:54:16.008Z,102162.75
2019-02-25T23:56:40.802Z,102164.86
2019-02-25T23:59:10.765Z,102174.73
